Time;durP1;ratioP1;P1;durP2;ratioP2;P2;SDS_P1;SDS_P2;PMS_P1;PMS_P2;Temp;Humidity;BMP_temperature;BMP_pressure;BME280_temperature;BME280_humidity;BME280_pressure;Samples;Min_cycle;Max_cycle;Signal;HPM_P1;HPM_P2
2022/10/25 00:00:38;;;;;;;;;;;18.40;65.90;;;;;;5033798;28;20419;-87
2022/10/25 00:03:08;;;;;;;;;;;18.50;65.90;;;;;;5019676;28;19924;-87
2022/10/25 00:05:33;;;;;;;;;;;18.50;65.80;;;;;;5013404;28;19936;-88
2022/10/25 00:07:59;;;;;;;;;;;18.50;66.00;;;;;;5007504;28;20303;-88
2022/10/25 00:10:25;;;;;;;;;;;18.60;66.10;;;;;;5021117;28;19909;-87
2022/10/25 00:12:51;;;;;;;;;;;18.70;66.00;;;;;;5017937;28;20010;-88
2022/10/25 00:15:16;;;;;;;;;;;18.70;66.00;;;;;;5029514;28;20478;-90
2022/10/25 00:17:42;;;;;;;;;;;18.70;65.90;;;;;;5012326;28;19928;-90
2022/10/25 00:20:08;;;;;;;;;;;18.70;66.00;;;;;;5012057;28;19913;-88
2022/10/25 00:22:33;;;;;;;;;;;18.70;66.00;;;;;;5029328;28;19921;-89
2022/10/25 00:24:59;;;;;;;;;;;18.70;65.90;;;;;;5012329;28;19968;-88
2022/10/25 00:27:24;;;;;;;;;;;18.70;65.80;;;;;;5026743;28;19976;-89
2022/10/25 00:29:51;;;;;;;;;;;18.70;65.90;;;;;;5013164;28;19917;-87
2022/10/25 00:32:17;;;;;;;;;;;18.70;66.10;;;;;;5010242;28;19921;-86
2022/10/25 00:34:42;;;;;;;;;;;18.70;66.10;;;;;;5028407;28;19913;-86
2022/10/25 00:37:08;;;;;;;;;;;18.70;66.30;;;;;;5026986;28;20403;-86
2022/10/25 00:39:33;;;;;;;;;;;18.70;66.40;;;;;;5027781;28;19917;-86
2022/10/25 00:41:59;;;;;;;;;;;18.80;66.50;;;;;;5012126;28;19920;-89
2022/10/25 00:44:43;;;;;;;;;;;18.70;66.60;;;;;;5004068;28;19952;-86
2022/10/25 00:47:21;;;;;;;;;;;18.80;66.80;;;;;;5025792;28;19968;-87
2022/10/25 00:49:51;;;;;;;;;;;18.80;66.80;;;;;;5024933;28;19913;-87
2022/10/25 00:52:17;;;;;;;;;;;18.80;66.80;;;;;;5011375;28;20468;-88
2022/10/25 00:54:44;;;;;;;;;;;18.90;66.80;;;;;;5027139;28;20008;-87
2022/10/25 00:57:13;;;;;;;;;;;18.90;66.70;;;;;;5026126;28;20380;-89
2022/10/25 00:59:39;;;;;;;;;;;18.90;66.60;;;;;;5028337;28;20353;-88
2022/10/25 01:02:04;;;;;;;;;;;18.90;66.60;;;;;;5014324;28;19959;-87
2022/10/25 01:04:30;;;;;;;;;;;18.90;66.50;;;;;;5003420;28;19921;-88
2022/10/25 01:06:56;;;;;;;;;;;18.90;66.40;;;;;;4993855;28;20284;-88
2022/10/25 01:09:23;;;;;;;;;;;18.90;66.30;;;;;;4995996;28;20368;-89
2022/10/25 01:11:49;;;;;;;;;;;18.90;66.50;;;;;;5012873;28;20024;-88
2022/10/25 01:14:15;;;;;;;;;;;19.00;66.50;;;;;;5013564;28;20325;-88
2022/10/25 01:16:50;;;;;;;;;;;18.90;66.30;;;;;;5024346;28;19909;-90
2022/10/25 01:19:34;;;;;;;;;;;18.90;66.00;;;;;;5014148;28;19960;-88
2022/10/25 01:22:09;;;;;;;;;;;18.90;66.10;;;;;;5014795;28;20363;-87
2022/10/25 01:24:34;;;;;;;;;;;18.90;66.20;;;;;;5014333;28;19921;-88
2022/10/25 01:27:00;;;;;;;;;;;18.80;66.20;;;;;;5012793;28;19948;-87
2022/10/25 01:29:35;;;;;;;;;;;18.90;66.30;;;;;;5011051;28;19913;-88
2022/10/25 01:32:23;;;;;;;;;;;19.00;66.50;;;;;;5009520;28;20375;-87
2022/10/25 01:34:56;;;;;;;;;;;19.10;66.50;;;;;;5027056;28;19917;-89
2022/10/25 01:37:28;;;;;;;;;;;19.10;66.50;;;;;;5027243;28;20360;-87
2022/10/25 01:40:15;;;;;;;;;;;19.20;66.50;;;;;;5022218;28;19920;-87
2022/10/25 01:43:03;;;;;;;;;;;19.30;66.40;;;;;;5025950;28;20335;-90
2022/10/25 01:45:34;;;;;;;;;;;19.30;66.40;;;;;;5018724;28;19917;-88
2022/10/25 01:48:11;;;;;;;;;;;19.30;66.20;;;;;;5011469;28;19925;-88
2022/10/25 01:50:41;;;;;;;;;;;19.40;66.40;;;;;;5018201;28;19917;-90
2022/10/25 01:53:07;;;;;;;;;;;19.50;66.30;;;;;;5000832;28;19917;-88
2022/10/25 01:55:41;;;;;;;;;;;19.50;66.10;;;;;;5008574;28;19975;-88
2022/10/25 01:58:19;;;;;;;;;;;19.50;66.20;;;;;;5010057;28;19940;-88
2022/10/25 02:00:55;;;;;;;;;;;19.60;66.20;;;;;;5009079;28;19910;-89
2022/10/25 02:03:26;;;;;;;;;;;19.60;66.20;;;;;;5012616;28;19925;-88
2022/10/25 02:05:52;;;;;;;;;;;19.60;66.10;;;;;;5011988;28;20537;-87
2022/10/25 02:08:34;;;;;;;;;;;19.70;66.10;;;;;;5011883;28;19933;-90
2022/10/25 02:11:09;;;;;;;;;;;19.70;66.10;;;;;;4993730;28;20004;-88
2022/10/25 02:13:37;;;;;;;;;;;19.70;66.10;;;;;;5004315;28;19917;-88
2022/10/25 02:16:08;;;;;;;;;;;19.70;66.00;;;;;;5013328;28;19910;-88
2022/10/25 02:18:36;;;;;;;;;;;19.70;65.90;;;;;;5030928;28;20453;-88
2022/10/25 02:21:02;;;;;;;;;;;19.60;65.80;;;;;;5013353;28;19998;-88
2022/10/25 02:23:28;;;;;;;;;;;19.60;65.80;;;;;;5012869;28;19917;-88
2022/10/25 02:25:54;;;;;;;;;;;19.50;65.80;;;;;;5029286;28;19913;-90
2022/10/25 02:28:21;;;;;;;;;;;19.50;65.80;;;;;;5008974;28;19933;-87
2022/10/25 02:30:48;;;;;;;;;;;19.50;65.80;;;;;;5025549;28;19944;-87
2022/10/25 02:33:14;;;;;;;;;;;19.60;66.00;;;;;;5026266;28;19924;-88
2022/10/25 02:35:40;;;;;;;;;;;19.60;66.00;;;;;;5011123;28;19921;-89
2022/10/25 02:38:05;;;;;;;;;;;19.60;66.00;;;;;;5009179;28;19917;-87
2022/10/25 02:40:31;;;;;;;;;;;19.60;66.10;;;;;;5012093;28;19913;-87
2022/10/25 02:42:56;;;;;;;;;;;19.60;66.20;;;;;;5027799;28;19921;-88
2022/10/25 02:45:22;;;;;;;;;;;19.70;66.10;;;;;;5024804;28;19922;-88
2022/10/25 02:47:47;;;;;;;;;;;19.70;66.10;;;;;;5009685;28;20277;-87
2022/10/25 02:50:13;;;;;;;;;;;19.70;66.10;;;;;;5006553;28;20020;-90
2022/10/25 02:52:38;;;;;;;;;;;19.80;65.90;;;;;;5022697;28;19924;-89
2022/10/25 02:55:04;;;;;;;;;;;19.80;66.00;;;;;;5008485;28;19964;-88
2022/10/25 02:57:33;;;;;;;;;;;19.80;66.00;;;;;;5027303;28;19925;-87
2022/10/25 02:59:58;;;;;;;;;;;19.80;66.00;;;;;;5011239;28;20009;-88
2022/10/25 03:02:24;;;;;;;;;;;19.90;65.90;;;;;;5031977;28;19952;-88
2022/10/25 03:04:49;;;;;;;;;;;19.90;65.90;;;;;;5011242;28;19920;-89
2022/10/25 03:07:15;;;;;;;;;;;19.90;65.90;;;;;;5012642;28;19969;-88
2022/10/25 03:09:40;;;;;;;;;;;19.90;65.80;;;;;;4997699;28;19909;-86
2022/10/25 03:12:06;;;;;;;;;;;19.80;65.80;;;;;;5030273;28;19916;-87
2022/10/25 03:14:32;;;;;;;;;;;19.80;65.90;;;;;;5030494;28;19928;-88
2022/10/25 03:16:57;;;;;;;;;;;19.70;66.00;;;;;;5012792;28;19913;-89
2022/10/25 03:19:23;;;;;;;;;;;19.70;66.00;;;;;;5030594;28;19957;-88
2022/10/25 03:21:48;;;;;;;;;;;19.60;65.90;;;;;;5029770;28;20364;-87
2022/10/25 03:24:14;;;;;;;;;;;19.60;66.20;;;;;;5008540;28;20000;-87
2022/10/25 03:26:39;;;;;;;;;;;19.50;66.30;;;;;;5030819;28;19932;-87
2022/10/25 03:29:05;;;;;;;;;;;19.50;66.40;;;;;;5037146;28;19928;-89
2022/10/25 03:31:30;;;;;;;;;;;19.50;66.40;;;;;;5026877;28;19959;-89
2022/10/25 03:33:56;;;;;;;;;;;19.50;66.20;;;;;;5035020;28;19917;-86
2022/10/25 03:36:21;;;;;;;;;;;19.50;66.30;;;;;;5035435;28;19948;-87
2022/10/25 03:38:47;;;;;;;;;;;19.60;66.40;;;;;;5013138;28;19928;-89
2022/10/25 03:41:12;;;;;;;;;;;19.60;66.30;;;;;;5010709;28;19921;-90
2022/10/25 03:43:38;;;;;;;;;;;19.70;66.20;;;;;;5014882;28;20379;-88
2022/10/25 03:46:03;;;;;;;;;;;19.70;66.20;;;;;;5010459;28;19913;-90
2022/10/25 03:48:29;;;;;;;;;;;19.70;66.10;;;;;;5029864;28;19926;-88
2022/10/25 03:50:54;;;;;;;;;;;19.80;66.20;;;;;;5011584;28;19919;-87
2022/10/25 03:53:20;;;;;;;;;;;19.80;66.10;;;;;;5028124;28;19928;-88
2022/10/25 03:55:45;;;;;;;;;;;19.80;65.90;;;;;;5028831;28;19921;-90
2022/10/25 03:58:11;;;;;;;;;;;19.80;66.00;;;;;;5026115;28;19953;-88
2022/10/25 04:00:36;;;;;;;;;;;19.70;65.90;;;;;;5012893;28;20011;-87
2022/10/25 04:03:02;;;;;;;;;;;19.70;66.00;;;;;;5033852;28;19918;-87
2022/10/25 04:05:27;;;;;;;;;;;19.60;66.00;;;;;;5013835;28;20254;-88
2022/10/25 04:07:53;;;;;;;;;;;19.50;66.20;;;;;;5033657;28;19953;-88
2022/10/25 04:10:18;;;;;;;;;;;19.50;66.20;;;;;;5029767;28;19910;-87
2022/10/25 04:12:45;;;;;;;;;;;19.60;66.20;;;;;;5013227;28;19972;-88
2022/10/25 04:15:11;;;;;;;;;;;19.50;66.30;;;;;;5013243;28;20004;-89
2022/10/25 04:17:36;;;;;;;;;;;19.50;66.20;;;;;;5025987;28;19955;-88
2022/10/25 04:20:02;;;;;;;;;;;19.50;66.30;;;;;;5036038;28;19913;-90
2022/10/25 04:22:27;;;;;;;;;;;19.50;66.40;;;;;;5015054;28;20488;-88
2022/10/25 04:24:53;;;;;;;;;;;19.50;66.20;;;;;;5034012;28;19914;-90
2022/10/25 04:27:18;;;;;;;;;;;19.40;66.20;;;;;;5012447;28;19925;-89
2022/10/25 04:29:44;;;;;;;;;;;19.50;66.10;;;;;;5015381;28;19913;-87
2022/10/25 04:32:10;;;;;;;;;;;19.40;66.20;;;;;;5019945;28;19957;-88
2022/10/25 04:34:36;;;;;;;;;;;19.40;66.10;;;;;;5014462;28;19916;-88
2022/10/25 04:37:01;;;;;;;;;;;19.40;66.20;;;;;;5031140;28;19913;-87
2022/10/25 04:39:27;;;;;;;;;;;19.40;66.00;;;;;;5029806;28;19917;-87
2022/10/25 04:41:52;;;;;;;;;;;19.40;66.00;;;;;;5029314;28;19917;-88
2022/10/25 04:44:18;;;;;;;;;;;19.40;66.00;;;;;;5008403;28;20380;-88
2022/10/25 04:46:43;;;;;;;;;;;19.40;65.80;;;;;;5014369;28;19917;-88
2022/10/25 04:49:10;;;;;;;;;;;19.30;65.90;;;;;;5014208;28;19967;-87
2022/10/25 04:51:36;;;;;;;;;;;19.30;65.80;;;;;;5022329;28;19924;-89
2022/10/25 04:54:01;;;;;;;;;;;19.20;65.80;;;;;;5028225;28;20012;-87
2022/10/25 04:56:27;;;;;;;;;;;19.20;65.70;;;;;;5018880;28;19921;-89
2022/10/25 04:58:53;;;;;;;;;;;19.20;65.60;;;;;;5024979;28;20406;-88
2022/10/25 05:01:18;;;;;;;;;;;19.20;65.80;;;;;;5051540;28;19912;-88
2022/10/25 05:03:44;;;;;;;;;;;19.20;65.80;;;;;;5041793;28;19917;-87
2022/10/25 05:06:21;;;;;;;;;;;19.20;66.00;;;;;;5062690;28;20016;-86
2022/10/25 05:08:47;;;;;;;;;;;19.30;66.20;;;;;;5043545;28;19968;-88
2022/10/25 05:11:14;;;;;;;;;;;19.30;66.20;;;;;;5052416;28;20021;-90
2022/10/25 05:13:40;;;;;;;;;;;19.40;66.30;;;;;;5052592;28;19916;-91
2022/10/25 05:16:06;;;;;;;;;;;19.40;66.20;;;;;;5034812;28;19948;-88
2022/10/25 05:18:32;;;;;;;;;;;19.50;66.20;;;;;;5035039;28;19943;-89
2022/10/25 05:20:59;;;;;;;;;;;19.50;66.20;;;;;;5033984;28;19999;-90
2022/10/25 05:23:25;;;;;;;;;;;19.50;66.10;;;;;;5035978;28;20276;-88
2022/10/25 05:26:04;;;;;;;;;;;19.50;65.80;;;;;;5052224;28;20390;-88
2022/10/25 05:28:29;;;;;;;;;;;19.50;65.90;;;;;;5052245;28;19931;-88
2022/10/25 05:30:55;;;;;;;;;;;19.40;65.80;;;;;;5051364;28;20331;-88
2022/10/25 05:33:20;;;;;;;;;;;19.40;65.90;;;;;;5033686;28;19920;-88
2022/10/25 05:35:46;;;;;;;;;;;19.40;65.80;;;;;;5033843;28;19955;-89
2022/10/25 05:38:11;;;;;;;;;;;19.50;65.70;;;;;;5036188;28;19992;-88
2022/10/25 05:40:37;;;;;;;;;;;19.40;65.60;;;;;;5035522;28;19960;-88
2022/10/25 05:43:02;;;;;;;;;;;19.40;65.70;;;;;;5033574;28;19983;-88
2022/10/25 05:45:28;;;;;;;;;;;19.40;65.70;;;;;;5033609;28;19909;-88
2022/10/25 05:47:54;;;;;;;;;;;19.40;65.80;;;;;;5036560;28;20302;-89
2022/10/25 05:50:19;;;;;;;;;;;19.40;65.80;;;;;;5033547;28;19991;-88
2022/10/25 05:52:45;;;;;;;;;;;19.50;65.90;;;;;;5051561;28;20440;-90
2022/10/25 05:55:10;;;;;;;;;;;19.50;66.00;;;;;;5033673;28;20003;-90
2022/10/25 05:57:36;;;;;;;;;;;19.60;66.00;;;;;;5034266;28;20406;-88
2022/10/25 06:00:02;;;;;;;;;;;19.60;66.00;;;;;;5030977;28;20008;-88
2022/10/25 06:02:27;;;;;;;;;;;19.70;66.00;;;;;;5032280;28;20352;-87
2022/10/25 06:04:53;;;;;;;;;;;19.70;65.90;;;;;;5013867;28;19913;-87
2022/10/25 06:07:18;;;;;;;;;;;19.70;66.00;;;;;;5014829;28;19932;-88
2022/10/25 06:09:44;;;;;;;;;;;19.80;65.90;;;;;;5013261;28;19909;-89
2022/10/25 06:12:09;;;;;;;;;;;19.70;65.80;;;;;;5031866;28;19932;-88
2022/10/25 06:14:35;;;;;;;;;;;19.80;65.90;;;;;;5015012;28;20233;-87
2022/10/25 06:17:00;;;;;;;;;;;19.80;65.90;;;;;;5014940;28;20422;-88
2022/10/25 06:19:26;;;;;;;;;;;19.80;66.00;;;;;;5014216;28;19909;-88
2022/10/25 06:21:55;;;;;;;;;;;19.80;65.90;;;;;;5015393;28;19913;-89
2022/10/25 06:24:20;;;;;;;;;;;19.80;65.80;;;;;;5013838;28;20323;-90
2022/10/25 06:26:46;;;;;;;;;;;19.90;65.70;;;;;;5016527;28;19920;-89
2022/10/25 06:29:12;;;;;;;;;;;19.80;65.70;;;;;;5031671;28;19917;-88
2022/10/25 06:31:37;;;;;;;;;;;19.90;65.80;;;;;;5013119;28;19910;-89
2022/10/25 06:34:03;;;;;;;;;;;19.90;65.80;;;;;;5014882;28;19956;-87
2022/10/25 06:36:30;;;;;;;;;;;19.90;65.70;;;;;;5014082;28;19909;-88
2022/10/25 06:38:55;;;;;;;;;;;19.90;65.60;;;;;;5032292;28;20395;-90
2022/10/25 06:41:26;;;;;;;;;;;19.90;65.50;;;;;;5030779;28;19944;-89
2022/10/25 06:43:52;;;;;;;;;;;19.90;65.60;;;;;;5015147;28;19925;-90
2022/10/25 06:46:21;;;;;;;;;;;19.90;65.70;;;;;;5015163;28;20617;-89
2022/10/25 06:48:46;;;;;;;;;;;19.90;65.60;;;;;;5016270;28;19921;-88
2022/10/25 06:51:12;;;;;;;;;;;19.90;65.70;;;;;;4995541;28;20039;-88
2022/10/25 06:53:38;;;;;;;;;;;19.90;65.80;;;;;;5005656;28;19917;-88
2022/10/25 06:56:05;;;;;;;;;;;19.90;65.70;;;;;;5038572;28;19928;-88
2022/10/25 06:58:31;;;;;;;;;;;20.00;65.60;;;;;;5050024;28;20349;-90
2022/10/25 07:01:04;;;;;;;;;;;19.90;65.70;;;;;;5015885;28;20449;-89
2022/10/25 07:03:34;;;;;;;;;;;20.00;65.60;;;;;;5034115;28;20171;-89
2022/10/25 07:06:05;;;;;;;;;;;19.90;65.70;;;;;;5018343;28;20360;-88
2022/10/25 07:08:33;;;;;;;;;;;19.90;65.60;;;;;;5036612;28;19929;-89
2022/10/25 07:10:59;;;;;;;;;;;19.90;65.60;;;;;;5022445;28;19920;-89
2022/10/25 07:13:25;;;;;;;;;;;19.90;65.70;;;;;;5034380;28;19925;-88
2022/10/25 07:15:50;;;;;;;;;;;19.90;65.90;;;;;;5052811;28;20370;-87
2022/10/25 07:18:16;;;;;;;;;;;20.00;65.90;;;;;;5051920;28;19920;-90
2022/10/25 07:20:47;;;;;;;;;;;20.00;66.00;;;;;;5041081;28;19913;-90
2022/10/25 07:23:15;;;;;;;;;;;20.10;66.10;;;;;;5033202;28;19970;-88
2022/10/25 07:25:41;;;;;;;;;;;20.20;66.00;;;;;;5033227;28;19956;-88
2022/10/25 07:28:07;;;;;;;;;;;20.20;66.00;;;;;;5035236;28;19979;-86
2022/10/25 07:30:32;;;;;;;;;;;20.30;66.10;;;;;;5053441;28;19913;-90
2022/10/25 07:32:57;;;;;;;;;;;20.30;65.90;;;;;;5031591;28;19921;-88
2022/10/25 07:35:23;;;;;;;;;;;20.40;65.90;;;;;;5051806;28;19913;-88
2022/10/25 07:37:48;;;;;;;;;;;20.40;65.90;;;;;;5034238;28;19921;-90
2022/10/25 07:40:14;;;;;;;;;;;20.50;66.10;;;;;;5033621;28;20221;-90
2022/10/25 07:42:39;;;;;;;;;;;20.60;66.00;;;;;;5036245;28;20016;-89
2022/10/25 07:45:05;;;;;;;;;;;20.60;66.10;;;;;;5053566;28;19913;-90
2022/10/25 07:47:31;;;;;;;;;;;20.70;66.00;;;;;;5051380;28;19956;-89
2022/10/25 07:49:56;;;;;;;;;;;20.80;66.00;;;;;;5037700;28;19921;-89
2022/10/25 07:52:22;;;;;;;;;;;20.80;65.90;;;;;;5033526;28;19966;-89
2022/10/25 07:54:47;;;;;;;;;;;20.80;66.10;;;;;;5034242;28;20356;-87
2022/10/25 07:57:13;;;;;;;;;;;20.80;66.50;;;;;;5032235;28;19925;-88
2022/10/25 07:59:39;;;;;;;;;;;20.90;66.60;;;;;;5033352;28;19913;-89
2022/10/25 08:02:04;;;;;;;;;;;21.00;66.50;;;;;;5033970;28;19980;-90
2022/10/25 08:04:31;;;;;;;;;;;21.00;66.20;;;;;;5032759;28;20742;-89
2022/10/25 08:07:00;;;;;;;;;;;21.00;66.10;;;;;;5029301;28;19925;-86
2022/10/25 08:09:26;;;;;;;;;;;21.20;66.90;;;;;;5028770;28;19913;-89
2022/10/25 08:11:51;;;;;;;;;;;21.30;67.10;;;;;;5031595;28;19939;-87
2022/10/25 08:14:17;;;;;;;;;;;21.60;67.50;;;;;;5030389;28;19913;-90
2022/10/25 08:16:43;;;;;;;;;;;21.80;67.00;;;;;;5030481;28;19996;-89
2022/10/25 08:19:09;;;;;;;;;;;21.80;65.70;;;;;;5029603;28;20372;-89
2022/10/25 08:21:34;;;;;;;;;;;21.70;65.20;;;;;;5030534;28;20324;-88
2022/10/25 08:24:00;;;;;;;;;;;21.60;64.70;;;;;;5030997;28;19921;-89
2022/10/25 08:26:27;;;;;;;;;;;21.50;64.40;;;;;;5030654;28;20369;-88
2022/10/25 08:28:53;;;;;;;;;;;21.30;64.20;;;;;;5029114;28;19971;-90
2022/10/25 08:31:18;;;;;;;;;;;21.30;64.50;;;;;;5030730;28;19921;-89
2022/10/25 08:33:44;;;;;;;;;;;21.20;64.60;;;;;;5028393;28;20224;-90
2022/10/25 08:36:09;;;;;;;;;;;21.20;64.60;;;;;;5032046;28;19952;-88
2022/10/25 08:38:35;;;;;;;;;;;21.20;64.80;;;;;;5029393;28;19921;-89
2022/10/25 08:41:01;;;;;;;;;;;21.10;64.60;;;;;;5030648;28;19963;-89
2022/10/25 08:43:38;;;;;;;;;;;21.00;64.60;;;;;;5029253;28;20168;-89
2022/10/25 08:46:12;;;;;;;;;;;21.00;64.70;;;;;;5029722;28;19913;-89
2022/10/25 08:48:40;;;;;;;;;;;20.90;64.90;;;;;;5032761;28;19929;-89
2022/10/25 08:51:26;;;;;;;;;;;20.90;65.50;;;;;;5030840;28;19913;-89
2022/10/25 08:53:53;;;;;;;;;;;21.10;65.80;;;;;;5030755;28;19921;-88
2022/10/25 08:56:19;;;;;;;;;;;21.20;66.20;;;;;;5028390;28;20568;-88
2022/10/25 08:59:03;;;;;;;;;;;21.30;65.80;;;;;;5030566;28;19979;-88
2022/10/25 09:01:37;;;;;;;;;;;21.30;65.80;;;;;;5030621;28;19910;-88
2022/10/25 09:04:03;;;;;;;;;;;21.30;65.70;;;;;;5031516;28;19921;-90
2022/10/25 09:06:34;;;;;;;;;;;21.40;66.00;;;;;;5029158;28;19913;-90
2022/10/25 09:09:23;;;;;;;;;;;21.50;66.30;;;;;;5029512;28;19929;-89
2022/10/25 09:12:24;;;;;;;;;;;21.80;66.60;;;;;;5029393;28;19948;-88
2022/10/25 09:15:10;;;;;;;;;;;22.00;66.70;;;;;;4972575;28;20032;-89
2022/10/25 09:17:49;;;;;;;;;;;22.30;66.80;;;;;;5029590;28;19956;-89
2022/10/25 09:20:20;;;;;;;;;;;22.40;66.30;;;;;;5032349;28;19964;-88
2022/10/25 09:22:45;;;;;;;;;;;22.60;66.70;;;;;;5030432;28;19923;-88
2022/10/25 09:25:17;;;;;;;;;;;22.80;66.20;;;;;;5031221;28;19913;-88
2022/10/25 09:27:46;;;;;;;;;;;22.80;65.70;;;;;;5028518;28;19929;-89
2022/10/25 09:30:12;;;;;;;;;;;23.10;66.70;;;;;;5030282;28;19924;-89
2022/10/25 09:32:44;;;;;;;;;;;23.60;67.40;;;;;;5027702;28;20352;-89
2022/10/25 09:35:16;;;;;;;;;;;24.10;66.90;;;;;;5027943;28;19917;-89
2022/10/25 09:37:45;;;;;;;;;;;24.40;66.60;;;;;;5031088;28;20364;-89
2022/10/25 09:40:13;;;;;;;;;;;24.70;66.80;;;;;;5029274;28;19975;-89
2022/10/25 09:42:41;;;;;;;;;;;25.00;65.70;;;;;;5028544;28;19920;-89
2022/10/25 09:45:19;;;;;;;;;;;25.20;64.10;;;;;;5031320;28;19913;-88
2022/10/25 09:47:49;;;;;;;;;;;25.10;64.10;;;;;;5029151;28;20272;-89
2022/10/25 09:50:20;;;;;;;;;;;25.00;63.30;;;;;;5032157;28;19959;-90
2022/10/25 09:53:05;;;;;;;;;;;24.80;63.30;;;;;;5028254;28;19928;-88
2022/10/25 09:55:40;;;;;;;;;;;24.70;63.60;;;;;;5029294;28;19949;-89
2022/10/25 09:58:10;;;;;;;;;;;24.60;64.00;;;;;;5013981;28;20317;-90
2022/10/25 10:00:38;;;;;;;;;;;24.40;63.40;;;;;;5013233;28;20430;-89
2022/10/25 10:03:03;;;;;;;;;;;24.30;63.50;;;;;;5010900;28;19921;-89
2022/10/25 10:05:29;;;;;;;;;;;24.10;63.60;;;;;;5014575;28;19915;-89
2022/10/25 10:07:55;;;;;;;;;;;23.90;63.20;;;;;;5011326;28;19929;-89
2022/10/25 10:10:26;;;;;;;;;;;23.80;63.50;;;;;;5029027;28;19920;-89
2022/10/25 10:12:58;;;;;;;;;;;23.60;63.40;;;;;;5011156;28;19925;-89
2022/10/25 10:15:26;;;;;;;;;;;23.50;63.60;;;;;;5011541;28;19920;-88
2022/10/25 10:18:11;;;;;;;;;;;23.40;63.30;;;;;;5010988;28;19948;-88
2022/10/25 10:20:36;;;;;;;;;;;23.30;63.70;;;;;;5012201;28;20378;-89
2022/10/25 10:23:02;;;;;;;;;;;23.20;63.70;;;;;;5011710;28;20299;-89
2022/10/25 10:25:27;;;;;;;;;;;23.20;62.80;;;;;;5011819;28;19913;-89
2022/10/25 10:27:54;;;;;;;;;;;23.00;63.30;;;;;;5015107;28;19929;-89
2022/10/25 10:30:23;;;;;;;;;;;23.00;63.70;;;;;;5011015;28;20048;-89
2022/10/25 10:32:52;;;;;;;;;;;23.00;64.00;;;;;;5028742;28;19921;-90
2022/10/25 10:35:25;;;;;;;;;;;23.40;65.20;;;;;;5028988;28;20390;-90
2022/10/25 10:37:51;;;;;;;;;;;24.00;65.70;;;;;;5029896;28;19925;-90
2022/10/25 10:40:16;;;;;;;;;;;24.60;65.70;;;;;;5016157;28;19920;-89
2022/10/25 10:42:42;;;;;;;;;;;25.30;65.70;;;;;;5033251;28;20027;-90
2022/10/25 10:45:08;;;;;;;;;;;25.80;64.60;;;;;;5015094;28;19917;-89
2022/10/25 10:47:34;;;;;;;;;;;26.30;63.50;;;;;;5014787;28;19925;-88
2022/10/25 10:50:01;;;;;;;;;;;26.70;63.10;;;;;;5014936;28;19983;-88
2022/10/25 10:52:33;;;;;;;;;;;27.10;62.90;;;;;;5015200;28;19921;-87
2022/10/25 10:54:59;;;;;;;;;;;27.20;60.90;;;;;;5034180;28;19909;-88
2022/10/25 10:57:33;;;;;;;;;;;27.30;60.40;;;;;;5031493;28;19932;-88
2022/10/25 10:59:59;;;;;;;;;;;27.40;59.60;;;;;;5015649;28;19910;-89
2022/10/25 11:02:27;;;;;;;;;;;27.40;58.90;;;;;;5014254;28;20300;-88
2022/10/25 11:04:54;;;;;;;;;;;27.50;59.40;;;;;;5013910;28;19924;-89
2022/10/25 11:07:30;;;;;;;;;;;27.70;58.50;;;;;;5014322;28;20292;-89
2022/10/25 11:10:14;;;;;;;;;;;27.90;57.80;;;;;;5016185;28;20348;-88
2022/10/25 11:12:40;;;;;;;;;;;28.10;57.80;;;;;;5015646;28;20705;-89
2022/10/25 11:15:12;;;;;;;;;;;28.40;57.70;;;;;;5013831;28;19913;-91
2022/10/25 11:17:52;;;;;;;;;;;28.80;56.60;;;;;;5014952;28;19959;-89
2022/10/25 11:20:20;;;;;;;;;;;29.00;54.80;;;;;;5031427;28;19923;-89
2022/10/25 11:22:49;;;;;;;;;;;29.10;55.50;;;;;;5031602;28;19987;-87
2022/10/25 11:25:31;;;;;;;;;;;29.00;53.30;;;;;;5013230;28;19913;-88
2022/10/25 11:27:56;;;;;;;;;;;28.80;53.20;;;;;;5012985;28;20020;-88
2022/10/25 11:30:23;;;;;;;;;;;28.80;53.20;;;;;;5013541;28;20009;-88
2022/10/25 11:33:00;;;;;;;;;;;28.70;53.70;;;;;;5032107;28;20269;-89
2022/10/25 11:35:32;;;;;;;;;;;28.50;53.30;;;;;;5013797;28;19913;-89
2022/10/25 11:38:20;;;;;;;;;;;28.00;52.60;;;;;;5031796;28;19964;-89
2022/10/25 11:40:54;;;;;;;;;;;27.90;53.10;;;;;;5000289;28;19913;-89
2022/10/25 11:43:46;;;;;;;;;;;28.20;52.80;;;;;;5013170;28;20050;-89
2022/10/25 11:46:18;;;;;;;;;;;28.40;51.40;;;;;;5012801;28;19913;-88
2022/10/25 11:49:00;;;;;;;;;;;28.70;52.80;;;;;;5013246;28;19925;-90
2022/10/25 11:51:44;;;;;;;;;;;29.20;52.30;;;;;;5031472;28;19913;-89
2022/10/25 11:54:28;;;;;;;;;;;29.80;52.80;;;;;;5030745;28;19931;-89
2022/10/25 11:56:59;;;;;;;;;;;30.20;50.60;;;;;;5025205;28;19920;-89
2022/10/25 11:59:34;;;;;;;;;;;30.70;50.60;;;;;;5053131;28;19917;-89
2022/10/25 12:02:12;;;;;;;;;;;30.90;50.00;;;;;;5032221;28;19944;-89
2022/10/25 12:04:48;;;;;;;;;;;31.00;49.30;;;;;;5050795;28;19917;-88
2022/10/25 12:07:21;;;;;;;;;;;30.70;46.60;;;;;;5051940;28;19931;-88
2022/10/25 12:10:19;;;;;;;;;;;30.40;47.70;;;;;;5033954;28;19917;-88
2022/10/25 12:12:50;;;;;;;;;;;30.20;48.30;;;;;;5005991;28;19952;-89
2022/10/25 12:15:19;;;;;;;;;;;29.80;46.50;;;;;;5032510;28;19961;-87
2022/10/25 12:17:45;;;;;;;;;;;29.50;47.50;;;;;;5033439;28;20415;-89
2022/10/25 12:20:16;;;;;;;;;;;29.30;48.60;;;;;;5032253;28;20020;-89
2022/10/25 12:22:46;;;;;;;;;;;29.00;49.20;;;;;;5050371;28;19920;-87
2022/10/25 12:25:21;;;;;;;;;;;29.00;49.60;;;;;;5034460;28;19917;-88
2022/10/25 12:27:48;;;;;;;;;;;29.00;49.80;;;;;;5033141;28;20280;-89
2022/10/25 12:30:15;;;;;;;;;;;29.00;49.10;;;;;;5031637;28;20619;-89
2022/10/25 12:32:49;;;;;;;;;;;28.80;48.60;;;;;;5050374;28;19952;-87
2022/10/25 12:35:30;;;;;;;;;;;28.70;48.10;;;;;;5029986;28;19963;-89
2022/10/25 12:38:01;;;;;;;;;;;28.60;48.60;;;;;;5031311;28;19917;-89
2022/10/25 12:40:28;;;;;;;;;;;28.40;49.30;;;;;;5030920;28;19971;-89
2022/10/25 12:42:56;;;;;;;;;;;28.20;49.00;;;;;;5011765;28;19939;-89
2022/10/25 12:45:33;;;;;;;;;;;28.00;48.70;;;;;;5022530;28;19912;-88
2022/10/25 12:48:08;;;;;;;;;;;27.70;48.90;;;;;;5050273;28;19939;-90
2022/10/25 12:50:49;;;;;;;;;;;27.30;48.50;;;;;;5032122;28;19916;-88
2022/10/25 12:53:24;;;;;;;;;;;27.00;49.00;;;;;;5031439;28;20031;-87
2022/10/25 12:56:08;;;;;;;;;;;26.60;49.80;;;;;;5034311;28;20426;-90
2022/10/25 12:59:13;;;;;;;;;;;26.40;50.80;;;;;;5031293;28;19921;-87
2022/10/25 13:01:54;;;;;;;;;;;26.10;51.50;;;;;;4968045;28;20045;-88
2022/10/25 13:04:28;;;;;;;;;;;25.90;52.30;;;;;;4968136;28;20402;-88
2022/10/25 13:06:55;;;;;;;;;;;25.80;52.90;;;;;;5020206;28;19923;-89
2022/10/25 13:09:21;;;;;;;;;;;25.80;52.60;;;;;;5050905;28;19916;-89
2022/10/25 13:11:46;;;;;;;;;;;25.80;53.20;;;;;;5034177;28;20352;-87
2022/10/25 13:14:26;;;;;;;;;;;25.80;52.40;;;;;;5033577;28;20050;-90
2022/10/25 13:17:12;;;;;;;;;;;25.90;52.70;;;;;;5049645;28;20000;-90
2022/10/25 13:19:38;;;;;;;;;;;25.90;53.10;;;;;;5031481;28;19992;-89
2022/10/25 13:22:05;;;;;;;;;;;25.90;52.10;;;;;;5049983;28;20439;-89
2022/10/25 13:24:44;;;;;;;;;;;25.80;52.30;;;;;;5107745;27;19916;-89
2022/10/25 13:27:19;;;;;;;;;;;25.80;51.40;;;;;;5106948;28;19963;-88
2022/10/25 13:30:01;;;;;;;;;;;25.70;50.70;;;;;;5106931;28;19912;-89
2022/10/25 13:32:47;;;;;;;;;;;25.50;51.50;;;;;;5106641;28;19928;-88
2022/10/25 13:35:15;;;;;;;;;;;25.50;51.10;;;;;;5064067;28;19959;-89
2022/10/25 13:37:42;;;;;;;;;;;25.40;51.60;;;;;;5086073;28;19920;-90
2022/10/25 13:40:17;;;;;;;;;;;25.40;51.20;;;;;;5086811;28;19920;-89
2022/10/25 13:42:45;;;;;;;;;;;25.40;51.40;;;;;;5086172;28;19947;-87
2022/10/25 13:45:39;;;;;;;;;;;25.40;51.90;;;;;;5086708;28;19934;-89
2022/10/25 13:48:24;;;;;;;;;;;25.40;51.60;;;;;;5086799;28;19925;-88
2022/10/25 13:50:58;;;;;;;;;;;25.50;50.50;;;;;;5084927;28;19924;-88
2022/10/25 13:53:29;;;;;;;;;;;25.40;50.10;;;;;;5086675;28;19971;-89
2022/10/25 13:56:01;;;;;;;;;;;25.30;50.70;;;;;;5087297;28;19909;-89
2022/10/25 13:58:27;;;;;;;;;;;25.30;50.90;;;;;;5086026;28;20355;-89
2022/10/25 14:00:53;;;;;;;;;;;25.30;51.00;;;;;;5084379;28;20294;-89
2022/10/25 14:03:19;;;;;;;;;;;25.30;50.90;;;;;;5086158;28;20184;-90
2022/10/25 14:08:35;;;;;;;;;;;25.40;51.00;;;;;;5087925;28;20450;-90
2022/10/25 14:11:05;;;;;;;;;;;25.40;50.30;;;;;;5104693;28;19974;-90
2022/10/25 14:13:38;;;;;;;;;;;25.30;50.40;;;;;;5103179;28;19920;-89
2022/10/25 14:16:03;;;;;;;;;;;25.30;50.40;;;;;;5094726;28;19919;-89
2022/10/25 14:18:32;;;;;;;;;;;25.20;49.40;;;;;;5086468;28;19921;-90
2022/10/25 14:21:00;;;;;;;;;;;25.20;49.80;;;;;;5106965;28;19982;-88
2022/10/25 14:23:29;;;;;;;;;;;25.10;50.20;;;;;;5104505;28;19971;-89
2022/10/25 14:25:56;;;;;;;;;;;25.10;50.10;;;;;;5105416;28;20394;-87
2022/10/25 14:28:26;;;;;;;;;;;25.10;49.80;;;;;;5104977;28;19920;-89
2022/10/25 14:31:02;;;;;;;;;;;25.10;50.20;;;;;;5105848;28;19916;-88